Map

Track Data

SID SEASON NUMBER BASIN SUBBASIN NAME ISO_TIME NATURE LAT LON WMO_WIND WMO_PRES WMO_AGENCY TRACK_TYPE DIST2LAND LANDFALL IFLAG USA_AGENCY USA_ATCF_ID USA_LAT USA_LON USA_RECORD USA_STATUS USA_WIND USA_PRES USA_SSHS USA_R34_NE USA_R34_SE USA_R34_SW USA_R34_NW USA_R50_NE USA_R50_SE USA_R50_SW USA_R50_NW USA_R64_NE USA_R64_SE USA_R64_SW USA_R64_NW USA_POCI USA_ROCI USA_RMW USA_EYE TOKYO_LAT TOKYO_LON TOKYO_GRADE TOKYO_WIND TOKYO_PRES TOKYO_R50_DIR TOKYO_R50_LONG TOKYO_R50_SHORT TOKYO_R30_DIR TOKYO_R30_LONG TOKYO_R30_SHORT TOKYO_LAND CMA_LAT CMA_LON CMA_CAT CMA_WIND CMA_PRES HKO_LAT HKO_LON HKO_CAT HKO_WIND HKO_PRES NEWDELHI_LAT NEWDELHI_LON NEWDELHI_GRADE NEWDELHI_WIND NEWDELHI_PRES NEWDELHI_CI NEWDELHI_DP NEWDELHI_POCI REUNION_LAT REUNION_LON REUNION_TYPE REUNION_WIND REUNION_PRES REUNION_TNUM REUNION_CI REUNION_RMW REUNION_R34_NE REUNION_R34_SE REUNION_R34_SW REUNION_R34_NW REUNION_R50_NE REUNION_R50_SE REUNION_R50_SW REUNION_R50_NW REUNION_R64_NE REUNION_R64_SE REUNION_R64_SW REUNION_R64_NW BOM_LAT BOM_LON BOM_TYPE BOM_WIND BOM_PRES BOM_TNUM BOM_CI BOM_RMW BOM_R34_NE BOM_R34_SE BOM_R34_SW BOM_R34_NW BOM_R50_NE BOM_R50_SE BOM_R50_SW BOM_R50_NW BOM_R64_NE BOM_R64_SE BOM_R64_SW BOM_R64_NW BOM_ROCI BOM_POCI BOM_EYE BOM_POS_METHOD BOM_PRES_METHOD NADI_LAT NADI_LON NADI_CAT NADI_WIND NADI_PRES WELLINGTON_LAT WELLINGTON_LON WELLINGTON_WIND WELLINGTON_PRES DS824_LAT DS824_LON DS824_STAGE DS824_WIND DS824_PRES TD9636_LAT TD9636_LON TD9636_STAGE TD9636_WIND TD9636_PRES TD9635_LAT TD9635_LON TD9635_WIND TD9635_PRES TD9635_ROCI NEUMANN_LAT NEUMANN_LON NEUMANN_CLASS NEUMANN_WIND NEUMANN_PRES MLC_LAT MLC_LON MLC_CLASS MLC_WIND MLC_PRES USA_GUST BOM_GUST BOM_GUST_PER REUNION_GUST REUNION_GUST_PER USA_SEAHGT USA_SEARAD_NE USA_SEARAD_SE USA_SEARAD_SW USA_SEARAD_NW STORM_SPEED STORM_DIR
1976198N12258 1976 72 EP MM DIANA 1976-07-15 18:00:00 NR 11.5000 -102.500 main 655 641 __________O___ -1 11.5000 -102.500 1 25 6 332
1976198N12258 1976 72 EP MM DIANA 1976-07-15 21:00:00 NR 11.7491 -102.633 main 641 624 __________P___ -1 11.7491 -102.633 1 27 7 316
1976198N12258 1976 72 EP MM DIANA 1976-07-16 00:00:00 TS 12.0000 -103.000 30 hurdat_epa main 627 624 O________OO___ hurdat_epa EP041976 12.0000 -103.000 TD 30 -1 12.0000 -103.000 TC 30 12.0000 -103.000 1 30 14 289
1976198N12258 1976 72 EP MM DIANA 1976-07-16 03:00:00 TS 12.2032 -104.004 main 650 650 P________PP___ EP041976 12.1784 -104.122 TD 30 -1 12.1784 -104.122 TC 30 12.2529 -103.766 1 31 21 282
1976198N12258 1976 72 EP MM DIANA 1976-07-16 06:00:00 TS 12.4262 -105.104 30 hurdat_epa main 680 673 O________OP___ hurdat_epa EP041976 12.4000 -105.200 TD 30 -1 12.4000 -105.200 TC 30 12.5048 -104.815 1 32 21 284
1976198N12258 1976 72 EP MM DIANA 1976-07-16 09:00:00 TS 12.7046 -106.137 main 685 684 P________PP___ EP041976 12.6923 -106.182 TD 32 -1 12.6923 -106.182 TC 32 12.7536 -105.956 1 33 19 287
1976198N12258 1976 72 EP MM DIANA 1976-07-16 12:00:00 TS 13.0000 -107.000 35 hurdat_epa main 701 701 O________OO___ hurdat_epa EP041976 13.0000 -107.000 TS 35 0 13.0000 -107.000 TC 35 13.0000 -107.000 2 35 15 291
1976198N12258 1976 72 EP MM DIANA 1976-07-16 15:00:00 TS 13.2573 -107.603 main 711 711 P________PP___ EP041976 13.2570 -107.603 TS 40 0 13.2570 -107.603 TC 40 13.2585 -107.603 2 37 12 295
1976198N12258 1976 72 EP MM DIANA 1976-07-16 18:00:00 TS 13.5035 -108.099 45 hurdat_epa main 728 724 O________OP___ hurdat_epa EP041976 13.5000 -108.100 TS 45 0 13.5000 -108.100 TC 45 13.5174 -108.094 2 40 11 297
1976198N12258 1976 72 EP MM DIANA 1976-07-16 21:00:00 TS 13.7530 -108.584 main 727 727 P________PP___ EP041976 13.7493 -108.583 TS 45 0 13.7493 -108.583 TC 45 13.7677 -108.588 2 42 12 295
1976198N12258 1976 72 EP MM DIANA 1976-07-17 00:00:00 TS 14.0000 -109.200 45 hurdat_epa main 747 747 O________OO___ hurdat_epa EP041976 14.0000 -109.200 TS 45 0 14.0000 -109.200 TC 45 14.0000 -109.200 2 45 16 289
1976198N12258 1976 72 EP MM DIANA 1976-07-17 03:00:00 TS 14.2654 -110.133 main 786 786 P________PP___ EP041976 14.2727 -110.125 TS 45 0 14.2727 -110.125 TC 45 14.2362 -110.164 2 47 20 284
1976198N12258 1976 72 EP MM DIANA 1976-07-17 06:00:00 TS 14.4889 -111.210 45 hurdat_epa main 855 855 O________OP___ hurdat_epa EP041976 14.5000 -111.200 TS 45 0 14.5000 -111.200 TC 45 14.4445 -111.248 2 50 22 280
1976198N12258 1976 72 EP MM DIANA 1976-07-17 09:00:00 TS 14.6374 -112.321 main 937 937 P________PP___ EP041976 14.6455 -112.318 TS 50 0 14.6455 -112.318 TC 50 14.6050 -112.333 2 52 20 276
1976198N12258 1976 72 EP MM DIANA 1976-07-17 12:00:00 TS 14.7000 -113.300 55 hurdat_epa main 980 980 O________OO___ hurdat_epa EP041976 14.7000 -113.300 TS 55 0 14.7000 -113.300 TC 55 14.7000 -113.300 2 55 16 271
1976198N12258 1976 72 EP MM DIANA 1976-07-17 15:00:00 TS 14.6764 -113.934 main 1004 1004 P________PP___ EP041976 14.6717 -113.925 TS 60 0 14.6717 -113.925 TC 60 14.6956 -113.971 2 60 11 265
1976198N12258 1976 72 EP MM DIANA 1976-07-17 18:00:00 TS 14.6068 -114.423 65 hurdat_epa main 1037 1037 O________OP___ hurdat_epa EP041976 14.6000 -114.400 HU 65 1 14.6000 -114.400 TC 65 14.6339 -114.514 2 65 10 262
1976198N12258 1976 72 EP MM DIANA 1976-07-17 21:00:00 TS 14.5389 -114.948 main 1071 1071 P________PP___ EP041976 14.5348 -114.935 HU 70 1 14.5348 -114.935 TC 70 14.5555 -114.999 2 70 10 264
1976198N12258 1976 72 EP MM DIANA 1976-07-18 00:00:00 TS 14.5000 -115.500 75 hurdat_epa main 1103 1103 O________OO___ hurdat_epa EP041976 14.5000 -115.500 HU 75 1 14.5000 -115.500 TC 75 14.5000 -115.500 4 75 11 270
1976198N12258 1976 72 EP MM DIANA 1976-07-18 03:00:00 TS 14.5321 -116.129 main 1137 1137 P________PP___ EP041976 14.5349 -116.135 HU 75 1 14.5349 -116.135 TC 75 14.5208 -116.105 4 75 13 274
1976198N12258 1976 72 EP MM DIANA 1976-07-18 06:00:00 TS 14.5938 -116.788 75 hurdat_epa main 1172 1172 O________OP___ hurdat_epa EP041976 14.6000 -116.800 HU 75 1 14.6000 -116.800 TC 75 14.5692 -116.740 4 75 13 275
1976198N12258 1976 72 EP MM DIANA 1976-07-18 09:00:00 TS 14.6464 -117.429 main 1211 1209 P________PP___ EP041976 14.6497 -117.435 HU 75 1 14.6497 -117.435 TC 75 14.6331 -117.405 4 75 13 275
1976198N12258 1976 72 EP MM DIANA 1976-07-18 12:00:00 TS 14.7000 -118.100 75 hurdat_epa main 1251 1251 O________OO___ hurdat_epa EP041976 14.7000 -118.100 HU 75 1 14.7000 -118.100 TC 75 14.7000 -118.100 4 75 14 274
1976198N12258 1976 72 EP MM DIANA 1976-07-18 15:00:00 TS 14.7482 -118.831 main 1302 1302 P________PP___ EP041976 14.7499 -118.835 HU 80 1 14.7499 -118.835 TC 80 14.7414 -118.813 4 76 14 274
1976198N12258 1976 72 EP MM DIANA 1976-07-18 18:00:00 TS 14.7969 -119.591 85 hurdat_epa main 1356 1356 O________OP___ hurdat_epa EP041976 14.8000 -119.600 HU 85 2 14.8000 -119.600 TC 85 14.7843 -119.556 4 77 15 274
1976198N12258 1976 72 EP MM DIANA 1976-07-18 21:00:00 TS 14.8467 -120.338 main 1399 1397 P________PP___ EP041976 14.8497 -120.343 HU 82 1 14.8497 -120.343 TC 82 14.8350 -120.320 4 78 15 274
1976198N12258 1976 72 EP MM DIANA 1976-07-19 00:00:00 TS 14.9000 -121.100 80 hurdat_epa main 1443 1443 O________OO___ hurdat_epa EP041976 14.9000 -121.100 HU 80 1 14.9000 -121.100 TC 80 14.9000 -121.100 4 80 15 274
1976198N12258 1976 72 EP MM DIANA 1976-07-19 03:00:00 TS 14.9408 -121.894 main 1499 1499 P________PP___ EP041976 14.9348 -121.893 HU 77 1 14.9348 -121.893 TC 77 14.9650 -121.898 4 78 16 274
1976198N12258 1976 72 EP MM DIANA 1976-07-19 06:00:00 TS 15.0094 -122.702 75 hurdat_epa main 1549 1549 O________OP___ hurdat_epa EP041976 15.0000 -122.700 HU 75 1 15.0000 -122.700 TC 75 15.0472 -122.708 4 77 16 277
1976198N12258 1976 72 EP MM DIANA 1976-07-19 09:00:00 TS 15.1330 -123.509 main 1602 1601 P________PP___ EP041976 15.1273 -123.508 HU 75 1 15.1273 -123.508 TC 75 15.1557 -123.514 4 76 16 281
1976198N12258 1976 72 EP MM DIANA 1976-07-19 12:00:00 TS 15.3000 -124.300 75 hurdat_epa main 1649 1649 O________OO___ hurdat_epa EP041976 15.3000 -124.300 HU 75 1 15.3000 -124.300 TC 75 15.3000 -124.300 4 75 15 283
1976198N12258 1976 72 EP MM DIANA 1976-07-19 15:00:00 TS 15.4855 -125.067 main 1699 1699 P________PP___ EP041976 15.4847 -125.065 HU 75 1 15.4847 -125.065 TC 75 15.4886 -125.075 4 75 15 286
1976198N12258 1976 72 EP MM DIANA 1976-07-19 18:00:00 TS 15.7024 -125.805 75 hurdat_epa main 1742 1742 O________OP___ hurdat_epa EP041976 15.7000 -125.800 HU 75 1 15.7000 -125.800 TC 75 15.7120 -125.824 4 75 15 288
1976198N12258 1976 72 EP MM DIANA 1976-07-19 21:00:00 TS 15.9448 -126.531 main 1772 1770 P________PP___ EP041976 15.9424 -126.530 HU 75 1 15.9424 -126.530 TC 75 15.9544 -126.537 4 75 14 290
1976198N12258 1976 72 EP MM DIANA 1976-07-20 00:00:00 TS 16.2000 -127.200 75 hurdat_epa main 1796 1795 O________OO___ hurdat_epa EP041976 16.2000 -127.200 HU 75 1 16.2000 -127.200 TC 75 16.2000 -127.200 4 75 13 293
1976198N12258 1976 72 EP MM DIANA 1976-07-20 03:00:00 TS 16.4519 -127.768 main 1815 1815 P________PP___ EP041976 16.4572 -127.773 HU 70 1 16.4572 -127.773 TC 70 16.4308 -127.748 4 70 12 295
1976198N12258 1976 72 EP MM DIANA 1976-07-20 06:00:00 TS 16.6923 -128.291 65 hurdat_epa main 1837 1837 O________OP___ hurdat_epa EP041976 16.7000 -128.300 HU 65 1 16.7000 -128.300 TC 65 16.6617 -128.256 4 65 11 294
1976198N12258 1976 72 EP MM DIANA 1976-07-20 09:00:00 TS 16.9029 -128.801 main 1860 1860 P________PP___ EP041976 16.9069 -128.805 HU 60 0 16.9069 -128.805 TC 60 16.8868 -128.786 4 60 11 291
1976198N12258 1976 72 EP MM DIANA 1976-07-20 12:00:00 TS 17.1000 -129.400 55 hurdat_epa main 1892 1892 O________OO___ hurdat_epa EP041976 17.1000 -129.400 TS 55 0 17.1000 -129.400 TC 55 17.1000 -129.400 2 55 14 287
1976198N12258 1976 72 EP MM DIANA 1976-07-20 15:00:00 TS 17.3048 -130.194 main 1943 1943 P________PP___ EP041976 17.3075 -130.198 TS 52 0 17.3075 -130.198 TC 52 17.2940 -130.182 2 55 17 284
1976198N12258 1976 72 EP MM DIANA 1976-07-20 18:00:00 TS 17.4946 -131.091 50 hurdat_epa main 2003 2003 O________OP___ hurdat_epa EP041976 17.5000 -131.100 TS 50 0 17.5000 -131.100 TC 50 17.4732 -131.053 2 55 18 281
1976198N12258 1976 72 EP MM DIANA 1976-07-20 21:00:00 TS 17.6540 -131.995 main 2067 2067 P________PP___ EP041976 17.6573 -132.000 TS 52 0 17.6573 -132.000 TC 52 17.6406 -131.973 2 55 18 280
1976198N12258 1976 72 EP MM DIANA 1976-07-21 00:00:00 TS 17.8000 -132.900 55 hurdat_epa main 2138 2138 O________OO___ hurdat_epa EP041976 17.8000 -132.900 TS 55 0 17.8000 -132.900 TC 55 17.8000 -132.900 2 55 17 280
1976198N12258 1976 72 EP MM DIANA 1976-07-21 03:00:00 TS 17.9540 -133.756 main 2205 2130 P________PP___ EP041976 17.9494 -133.750 TS 50 0 17.9494 -133.750 TC 50 17.9724 -133.779 2 50 17 281
1976198N12258 1976 72 EP MM DIANA 1976-07-21 06:00:00 TS 18.1072 -134.611 45 hurdat_epa main 2130 2033 O________OP___ hurdat_epa EP041976 18.1000 -134.600 TS 45 0 18.1000 -134.600 TC 45 18.1361 -134.657 2 45 17 280
1976198N12258 1976 72 EP MM DIANA 1976-07-21 09:00:00 TS 18.2622 -135.506 main 2033 1938 P________PP___ EP041976 18.2573 -135.500 TS 40 0 18.2573 -135.500 TC 40 18.2818 -135.532 2 40 17 280
1976198N12258 1976 72 EP MM DIANA 1976-07-21 12:00:00 TS 18.4000 -136.400 35 hurdat_epa main 1938 1853 O________OO___ hurdat_epa EP041976 18.4000 -136.400 TS 35 0 18.4000 -136.400 TC 35 18.4000 -136.400 2 35 17 279
1976198N12258 1976 72 EP MM DIANA 1976-07-21 15:00:00 TS 18.5145 -137.258 main 1842 1757 P________PP___ EP041976 18.5220 -137.257 TS 32 -1 18.5220 -137.257 TC 32 18.4844 -137.259 2 33 16 277
1976198N12258 1976 72 EP MM DIANA 1976-07-21 18:00:00 TS 18.5906 -138.102 30 hurdat_epa main 1757 1673 O________OP___ hurdat_epa EP041976 18.6000 -138.100 TD 30 -1 18.6000 -138.100 TC 30 18.5404 -138.110 2 32 16 273
1976198N12258 1976 72 EP MM DIANA 1976-07-21 21:00:00 TS 18.6104 -138.958 main 1663 1579 P________PP___ EP041976 18.6147 -138.958 TD 30 -1 18.6147 -138.958 TC 30 18.5761 -138.956 2 31 16 270
1976198N12258 1976 72 EP MM DIANA 1976-07-22 00:00:00 TS 18.6000 -139.800 30 hurdat_epa main 1579 1495 O________OO___ hurdat_epa EP041976 18.6000 -139.800 TD 30 -1 18.6000 -139.800 TC 30 18.6000 -139.800 1 30 16 270
1976198N12258 1976 72 EP CP DIANA 1976-07-22 03:00:00 TS 18.5997 -140.622 main 1495 1422 P________P____ EP041976 18.5997 -140.622 TD 30 -1 18.5997 -140.622 TC 30 1 15 269
1976198N12258 1976 72 EP CP DIANA 1976-07-22 06:00:00 TS 18.5824 -141.388 30 hurdat_epa main 1411 1338 O________O____ hurdat_epa EP041976 18.6000 -141.400 TD 30 -1 18.6000 -141.400 TC 30 1 14 269
1976198N12258 1976 72 EP CP DIANA 1976-07-22 09:00:00 TS 18.5791 -142.090 main 1338 1275 P________P____ EP041976 18.6071 -142.115 TD 30 -1 18.6071 -142.115 TC 30 1 13 269
1976198N12258 1976 72 EP CP DIANA 1976-07-22 12:00:00 TS 18.5684 -142.768 30 hurdat_epa main 1265 1203 O________O____ hurdat_epa EP041976 18.6000 -142.800 TD 30 -1 18.6000 -142.800 TC 30 13 268
1976198N12258 1976 72 EP CP DIANA 1976-07-22 15:00:00 TS 18.5302 -143.461 main 1193 1130 P________P____ EP041976 18.5572 -143.493 TD 30 -1 18.5572 -143.493 TC 30 13 266
1976198N12258 1976 72 EP CP DIANA 1976-07-22 18:00:00 TS 18.4842 -144.184 30 hurdat_epa main 1119 1048 O________O____ hurdat_epa EP041976 18.5000 -144.200 TD 30 -1 18.5000 -144.200 TC 30 14 266
1976198N12258 1976 72 EP CP DIANA 1976-07-22 21:00:00 TS 18.4283 -144.924 main 1048 964 P________P____ EP041976 18.4421 -144.928 TD 30 -1 18.4421 -144.928 TC 30 14 266
1976198N12258 1976 72 EP CP DIANA 1976-07-23 00:00:00 TS 18.3846 -145.700 30 hurdat_epa main 964 881 O________O____ hurdat_epa EP041976 18.4000 -145.700 TD 30 -1 18.4000 -145.700 TC 30 15 269
1976198N12258 1976 72 EP CP DIANA 1976-07-23 03:00:00 TS 18.3909 -146.532 main 881 787 P________P____ EP041976 18.3909 -146.532 TD 30 -1 18.3909 -146.532 TC 30 16 271
1976198N12258 1976 72 EP CP DIANA 1976-07-23 06:00:00 TS 18.4000 -147.400 30 hurdat_epa main 787 O________O____ hurdat_epa EP041976 18.4000 -147.400 TD 30 -1 18.4000 -147.400 TC 30 16 271

About IBTrACS Database

This database is a web-friendly format of International Best Track Archive for Climate Stewardship (IBTrACS), a global best track data archive curated by NOAA dating back to 1842.

Updated: 2021-12-06